createdAt,value
2023-05-10T00:00:54.576Z,1000.00
2023-05-10T00:01:54.624Z,1000.00
2023-05-10T00:02:54.688Z,1000.00
2023-05-10T00:03:54.664Z,1000.00
2023-05-10T00:04:54.682Z,1000.00
2023-05-10T00:05:54.686Z,1000.00
2023-05-10T00:06:54.738Z,1000.00
2023-05-10T00:07:54.818Z,1000.00
2023-05-10T00:08:54.794Z,1000.00
2023-05-10T00:09:54.811Z,1000.00
2023-05-10T00:10:54.946Z,1000.00
2023-05-10T00:11:54.917Z,1000.00
2023-05-10T00:12:55.014Z,1000.00
2023-05-10T00:13:55.036Z,1000.00
2023-05-10T00:14:55.043Z,1000.00
2023-05-10T00:15:55.121Z,1000.00
2023-05-10T00:16:55.315Z,1000.00
2023-05-10T00:17:55.337Z,1000.00
2023-05-10T00:18:55.296Z,1000.00
2023-05-10T00:19:55.339Z,1000.00
2023-05-10T00:20:55.360Z,1000.00
2023-05-10T00:21:55.362Z,1000.00
2023-05-10T00:22:55.428Z,1000.00
2023-05-10T00:23:55.459Z,1000.00
2023-05-10T00:24:55.511Z,1000.00
2023-05-10T00:25:55.506Z,1000.00
2023-05-10T00:26:55.562Z,1000.00
2023-05-10T00:27:55.629Z,1000.00
2023-05-10T00:28:55.612Z,1000.00
2023-05-10T00:29:55.665Z,1000.00
2023-05-10T00:30:55.627Z,1000.00
2023-05-10T00:31:55.662Z,1000.00
2023-05-10T00:32:55.639Z,1000.00
2023-05-10T00:33:55.612Z,1000.00
2023-05-10T00:34:55.646Z,1000.00
2023-05-10T00:35:55.604Z,1000.00
2023-05-10T00:36:55.664Z,1000.00
2023-05-10T00:37:55.666Z,1000.00
2023-05-10T00:38:55.645Z,1000.00
2023-05-10T00:39:55.686Z,1000.00
2023-05-10T00:40:55.695Z,1000.00
2023-05-10T00:41:55.744Z,1000.00
2023-05-10T00:42:55.882Z,1000.00
2023-05-10T00:43:55.909Z,1000.00
2023-05-10T00:44:55.888Z,1000.00
2023-05-10T00:45:55.978Z,1000.00
2023-05-10T00:46:55.989Z,1000.00
2023-05-10T00:47:56.143Z,1000.00
2023-05-10T00:48:56.092Z,1000.00
2023-05-10T00:49:56.144Z,1000.00
2023-05-10T00:50:56.158Z,1000.00
2023-05-10T00:51:56.174Z,1000.00
2023-05-10T00:52:56.224Z,1000.00
2023-05-10T00:53:56.226Z,1000.00
2023-05-10T00:54:56.276Z,1000.00
2023-05-10T00:55:56.261Z,1000.00
2023-05-10T00:56:56.810Z,1000.00
2023-05-10T00:57:56.282Z,1000.00
2023-05-10T00:58:56.282Z,1000.00
2023-05-10T00:59:56.389Z,1000.00
2023-05-10T01:00:56.465Z,1000.00
2023-05-10T01:01:56.447Z,1000.00
2023-05-10T01:02:56.580Z,1000.00
2023-05-10T01:03:56.466Z,1000.00
2023-05-10T01:04:56.586Z,1000.00
2023-05-10T01:05:56.582Z,1000.00
2023-05-10T01:06:56.664Z,1000.00
2023-05-10T01:07:56.696Z,1000.00
2023-05-10T01:08:56.714Z,1000.00
2023-05-10T01:09:56.761Z,1000.00
2023-05-10T01:10:56.690Z,1000.00
2023-05-10T01:11:56.782Z,1000.00
2023-05-10T01:12:56.920Z,1000.00
2023-05-10T01:13:56.875Z,1000.00
2023-05-10T01:14:56.956Z,1000.00
2023-05-10T01:15:57.078Z,1000.00
2023-05-10T01:16:57.070Z,1000.00
2023-05-10T01:17:57.147Z,1000.00
2023-05-10T01:18:57.166Z,1000.00
2023-05-10T01:19:57.305Z,1000.00
2023-05-10T01:20:57.362Z,1000.00
2023-05-10T01:21:57.386Z,1000.00
2023-05-10T01:22:57.443Z,1000.00
2023-05-10T01:23:57.508Z,1000.00
2023-05-10T01:24:57.551Z,1000.00
2023-05-10T01:25:57.507Z,1000.00
2023-05-10T01:26:57.546Z,1000.00
2023-05-10T01:27:57.561Z,1000.00
2023-05-10T01:28:57.550Z,1000.00
2023-05-10T01:30:13.639Z,1000.00
2023-05-10T01:30:58.589Z,1000.00
2023-05-10T01:31:57.576Z,1000.00
2023-05-10T01:32:57.596Z,1000.00
2023-05-10T01:33:57.558Z,1000.00
2023-05-10T01:34:57.545Z,1000.00
2023-05-10T01:35:57.513Z,1000.00
2023-05-10T01:36:57.493Z,1000.00
2023-05-10T01:37:57.544Z,1000.00
2023-05-10T01:38:57.536Z,1000.00
2023-05-10T01:39:57.484Z,1000.00
2023-05-10T01:40:57.502Z,1000.00
2023-05-10T01:41:57.485Z,1000.00
2023-05-10T01:42:57.509Z,1000.00
2023-05-10T01:43:57.447Z,1000.00
2023-05-10T01:44:57.468Z,1000.00
2023-05-10T01:45:57.452Z,1000.00
2023-05-10T01:46:57.670Z,1000.00
2023-05-10T01:47:57.580Z,1000.00
2023-05-10T01:48:57.461Z,1000.00
2023-05-10T01:49:57.478Z,1000.00
2023-05-10T01:50:57.428Z,1000.00
2023-05-10T01:51:57.425Z,1000.00
2023-05-10T01:52:57.411Z,1000.00
2023-05-10T01:53:57.409Z,1000.00
2023-05-10T01:54:57.401Z,1000.00
2023-05-10T01:55:57.405Z,1000.00
2023-05-10T01:56:57.350Z,1000.00
2023-05-10T01:57:57.378Z,1000.00
2023-05-10T01:58:57.350Z,1000.00
2023-05-10T01:59:57.372Z,1000.00
2023-05-10T02:00:57.454Z,1000.00
2023-05-10T02:01:57.384Z,1000.00
2023-05-10T02:02:57.538Z,1000.00
2023-05-10T02:03:57.499Z,1000.00
2023-05-10T02:04:57.472Z,1000.00
2023-05-10T02:05:57.552Z,1000.00
2023-05-10T02:06:57.519Z,1000.00
2023-05-10T02:07:57.593Z,1000.00
2023-05-10T02:08:57.589Z,1000.00
2023-05-10T02:09:57.612Z,1000.00
2023-05-10T02:10:57.648Z,1000.00
2023-05-10T02:11:57.678Z,1000.00
2023-05-10T02:12:57.733Z,1000.00
2023-05-10T02:13:57.673Z,1000.00
2023-05-10T02:14:57.707Z,1000.00
2023-05-10T02:15:57.710Z,1000.00
2023-05-10T02:16:57.757Z,1000.00
2023-05-10T02:17:58.021Z,1000.00
2023-05-10T02:18:57.779Z,1000.00
2023-05-10T02:19:57.842Z,1000.00
2023-05-10T02:20:57.859Z,1000.00
2023-05-10T02:21:57.978Z,1000.00
2023-05-10T02:22:57.973Z,1000.00
2023-05-10T02:23:58.011Z,1000.00
2023-05-10T02:24:58.060Z,1000.00
2023-05-10T02:25:58.170Z,1000.00
2023-05-10T02:26:58.208Z,1000.00
2023-05-10T02:27:58.224Z,1000.00
2023-05-10T02:28:58.255Z,1000.00
2023-05-10T02:29:58.264Z,1000.00
2023-05-10T02:30:58.319Z,1000.00
2023-05-10T02:31:58.488Z,1000.00
2023-05-10T02:32:58.475Z,1000.00
2023-05-10T02:33:58.421Z,1000.00
2023-05-10T02:34:58.502Z,1000.00
2023-05-10T02:35:58.600Z,1000.00
2023-05-10T02:36:58.587Z,1000.00
2023-05-10T02:37:58.575Z,1000.00
2023-05-10T02:38:58.573Z,1000.00
2023-05-10T02:39:58.583Z,1000.00
2023-05-10T02:40:58.634Z,1000.00
2023-05-10T02:41:58.630Z,1000.00
2023-05-10T02:42:58.638Z,1000.00
2023-05-10T02:43:58.653Z,1000.00
2023-05-10T02:44:58.665Z,1000.00
2023-05-10T02:45:58.691Z,1000.00
2023-05-10T02:46:58.666Z,1000.00
2023-05-10T02:47:58.713Z,1000.00
2023-05-10T02:48:58.676Z,1000.00
2023-05-10T02:49:58.761Z,1000.00
2023-05-10T02:50:58.725Z,1000.00
2023-05-10T02:51:58.754Z,1000.00
2023-05-10T02:52:58.782Z,1000.00
2023-05-10T02:53:58.876Z,1000.00
2023-05-10T02:54:58.961Z,1000.00
2023-05-10T02:55:58.976Z,1000.00
2023-05-10T02:56:59.005Z,1000.00
2023-05-10T02:57:58.957Z,1000.00
2023-05-10T02:58:59.058Z,1000.00
2023-05-10T02:59:59.062Z,1000.00
2023-05-10T03:00:59.087Z,1000.00
2023-05-10T03:01:59.095Z,1000.00
2023-05-10T03:02:59.194Z,1000.00
2023-05-10T03:03:59.095Z,1000.00
2023-05-10T03:04:59.426Z,1000.00
2023-05-10T03:05:59.117Z,1000.00
2023-05-10T03:06:59.115Z,1000.00
2023-05-10T03:07:59.143Z,1000.00
2023-05-10T03:08:59.232Z,1000.00
2023-05-10T03:09:59.339Z,1000.00
2023-05-10T03:10:59.353Z,1000.00
2023-05-10T03:11:59.455Z,1000.00
2023-05-10T03:12:59.468Z,1000.00
2023-05-10T03:13:59.469Z,1000.00
2023-05-10T03:14:59.555Z,1000.00
2023-05-10T03:15:59.584Z,1000.00
2023-05-10T03:16:59.550Z,1000.00
2023-05-10T03:17:59.658Z,1000.00
2023-05-10T03:18:59.608Z,1000.00
2023-05-10T03:19:59.683Z,1000.00
2023-05-10T03:20:59.725Z,1000.00
2023-05-10T03:21:59.800Z,1000.00
2023-05-10T03:22:59.846Z,1000.00
2023-05-10T03:23:59.944Z,1000.00
2023-05-10T03:24:59.956Z,1000.00
2023-05-10T03:26:00.015Z,1000.00
2023-05-10T03:27:00.029Z,1000.00
2023-05-10T03:28:00.054Z,1000.00
2023-05-10T03:29:00.124Z,1000.00
2023-05-10T03:30:00.265Z,1000.00
2023-05-10T03:31:00.227Z,1000.00
2023-05-10T03:32:00.261Z,1000.00
2023-05-10T03:33:00.352Z,1000.00
2023-05-10T03:34:00.336Z,1000.00
2023-05-10T03:35:00.337Z,1000.00
2023-05-10T03:36:00.408Z,1000.00
2023-05-10T03:37:00.394Z,1000.00
2023-05-10T03:38:00.415Z,1000.00
2023-05-10T03:39:00.415Z,1000.00
2023-05-10T03:40:00.454Z,1000.00
2023-05-10T03:41:00.439Z,1000.00
2023-05-10T03:42:00.459Z,1000.00
2023-05-10T03:43:00.461Z,1000.00
2023-05-10T03:44:00.459Z,1000.00
2023-05-10T03:45:00.519Z,1000.00
2023-05-10T03:46:00.524Z,1000.00
2023-05-10T03:47:00.727Z,1000.00
2023-05-10T03:48:00.714Z,1000.00
2023-05-10T03:49:00.806Z,1000.00
2023-05-10T03:50:00.748Z,1000.00
2023-05-10T03:51:00.804Z,1000.00
2023-05-10T03:52:00.859Z,1000.00
2023-05-10T03:53:00.871Z,1000.00
2023-05-10T03:54:00.823Z,1000.00
2023-05-10T03:55:00.884Z,1000.00
2023-05-10T03:56:00.833Z,1000.00
2023-05-10T03:57:00.855Z,1000.00
2023-05-10T03:58:00.999Z,1000.00
2023-05-10T03:59:00.909Z,1000.00
2023-05-10T04:00:00.995Z,1000.00
2023-05-10T04:01:00.989Z,1000.00
2023-05-10T04:02:01.064Z,1000.00
2023-05-10T04:03:01.087Z,1000.00
2023-05-10T04:04:01.144Z,1000.00
2023-05-10T04:05:01.157Z,1000.00
2023-05-10T04:06:01.262Z,1000.00
2023-05-10T04:07:01.237Z,1000.00
2023-05-10T04:08:01.276Z,1000.00
2023-05-10T04:09:01.290Z,1000.00
2023-05-10T04:10:01.243Z,1000.00
2023-05-10T04:11:01.292Z,1000.00
2023-05-10T04:12:01.366Z,1000.00
2023-05-10T04:13:01.489Z,1000.00
2023-05-10T04:14:01.528Z,1000.00
2023-05-10T04:15:01.587Z,1000.00
2023-05-10T04:16:01.594Z,1000.00
2023-05-10T04:17:02.250Z,1000.00
2023-05-10T04:18:01.872Z,1000.00
2023-05-10T04:19:01.836Z,1000.00
2023-05-10T04:20:01.878Z,1000.00
2023-05-10T04:21:01.933Z,1000.00
2023-05-10T04:22:01.996Z,1000.00
2023-05-10T04:23:02.054Z,1000.00
2023-05-10T04:24:02.126Z,1000.00
2023-05-10T04:25:02.125Z,1000.00
2023-05-10T04:26:02.175Z,1000.00
2023-05-10T04:27:02.232Z,1000.00
2023-05-10T04:28:02.336Z,1000.00
2023-05-10T04:29:02.351Z,1000.00
2023-05-10T04:30:02.415Z,1000.00
2023-05-10T04:31:02.522Z,1000.00
2023-05-10T04:32:02.570Z,1000.00
2023-05-10T04:33:02.760Z,1000.00
2023-05-10T04:34:02.707Z,1000.00
2023-05-10T04:35:02.796Z,1000.00
2023-05-10T04:36:02.824Z,1000.00
2023-05-10T04:37:02.910Z,1000.00
2023-05-10T04:38:02.911Z,1000.00
2023-05-10T04:39:02.961Z,1000.00
2023-05-10T04:40:03.050Z,1000.00
2023-05-10T04:41:03.086Z,1000.00
2023-05-10T04:42:03.150Z,1000.00
2023-05-10T04:43:03.198Z,1000.00
2023-05-10T04:44:03.267Z,1000.00
2023-05-10T04:45:03.265Z,1000.00
2023-05-10T04:46:03.415Z,1000.00
2023-05-10T04:47:03.327Z,1000.00
2023-05-10T04:48:03.434Z,1000.00
2023-05-10T04:49:03.481Z,1000.00
2023-05-10T04:50:03.518Z,1000.00
2023-05-10T04:51:03.632Z,1000.00
2023-05-10T04:52:03.642Z,1000.00
2023-05-10T04:53:03.739Z,1000.00
2023-05-10T04:54:06.645Z,1000.00
2023-05-10T04:55:03.748Z,1000.00
2023-05-10T04:56:03.732Z,1000.00
2023-05-10T04:57:03.749Z,1000.00
2023-05-10T04:58:03.719Z,1000.00
2023-05-10T04:59:03.712Z,1000.00
2023-05-10T05:00:03.719Z,1000.00
2023-05-10T05:02:31.442Z,0.50
2023-05-10T05:03:23.777Z,0.50
2023-05-10T05:04:23.719Z,0.50
2023-05-10T05:05:23.737Z,0.50
2023-05-10T05:06:23.728Z,0.50
2023-05-10T05:07:23.703Z,0.50
2023-05-10T05:08:23.640Z,0.50
2023-05-10T05:09:23.663Z,0.42
2023-05-10T05:10:23.667Z,0.41
2023-05-10T05:11:23.680Z,0.56
2023-05-10T05:12:23.672Z,0.64
2023-05-10T05:13:23.845Z,0.59
2023-05-10T05:14:23.608Z,0.62
2023-05-10T05:15:23.644Z,0.73
2023-05-10T05:16:23.683Z,0.68
2023-05-10T05:17:23.627Z,0.68
2023-05-10T05:18:23.727Z,0.76
2023-05-10T05:19:23.725Z,0.90
2023-05-10T05:20:23.626Z,1.06
2023-05-10T05:21:23.637Z,1.91
2023-05-10T05:22:23.632Z,1.85
2023-05-10T05:23:23.611Z,2.48
2023-05-10T05:24:23.665Z,2.85
2023-05-10T05:25:23.629Z,2.24
2023-05-10T05:26:23.603Z,2.23
2023-05-10T05:27:23.682Z,2.52
2023-05-10T05:28:23.687Z,3.47
2023-05-10T05:29:23.785Z,3.68
2023-05-10T05:30:23.808Z,3.98
2023-05-10T05:31:23.947Z,3.95
2023-05-10T05:32:23.967Z,4.66
2023-05-10T05:33:24.020Z,3.96
2023-05-10T05:34:24.462Z,5.80
2023-05-10T05:35:24.108Z,12.00
2023-05-10T05:36:24.142Z,13.13
2023-05-10T05:37:24.165Z,11.94
2023-05-10T05:38:24.122Z,14.17
2023-05-10T05:39:24.374Z,19.71
2023-05-10T05:40:24.272Z,15.04
2023-05-10T05:41:24.384Z,12.41
2023-05-10T05:42:24.396Z,8.16
2023-05-10T05:43:25.391Z,9.25
2023-05-10T05:44:24.907Z,7.56
2023-05-10T05:45:25.337Z,7.01
2023-05-10T05:47:44.147Z,0.50
2023-05-10T05:48:44.115Z,0.50
2023-05-10T05:49:43.899Z,0.50
2023-05-10T05:50:43.865Z,0.50
2023-05-10T05:51:43.892Z,0.50
2023-05-10T05:52:43.851Z,0.52
2023-05-10T05:53:44.077Z,0.50
2023-05-10T05:54:43.838Z,0.39
2023-05-10T05:55:43.850Z,0.34
2023-05-10T05:56:43.870Z,0.34
2023-05-10T05:57:43.807Z,0.34
2023-05-10T05:58:43.856Z,0.34
2023-05-10T05:59:44.105Z,0.35
2023-05-10T06:00:43.793Z,0.41
2023-05-10T06:01:43.835Z,0.51
2023-05-10T06:02:43.875Z,0.62
2023-05-10T06:03:43.877Z,0.59
2023-05-10T06:04:44.910Z,0.73
2023-05-10T06:05:43.786Z,1.18
2023-05-10T06:06:43.805Z,1.80
2023-05-10T06:07:43.739Z,1.68
2023-05-10T06:08:43.734Z,1.49
2023-05-10T06:09:43.767Z,2.86
2023-05-10T06:10:43.722Z,1.85
2023-05-10T06:11:43.708Z,1.77
2023-05-10T06:12:43.704Z,1.68
2023-05-10T06:13:43.699Z,3.06
2023-05-10T06:14:43.699Z,3.49
2023-05-10T06:15:43.793Z,3.68
2023-05-10T06:16:43.754Z,2.71
2023-05-10T06:17:43.769Z,2.40
2023-05-10T06:18:43.710Z,2.05
2023-05-10T06:19:43.702Z,2.42
2023-05-10T06:20:43.693Z,2.66
2023-05-10T06:21:43.613Z,3.92
2023-05-10T06:22:44.562Z,3.24
2023-05-10T06:23:44.058Z,3.02
2023-05-10T06:24:43.636Z,2.39
2023-05-10T06:25:43.634Z,2.88
2023-05-10T06:26:43.634Z,1.94
2023-05-10T06:27:44.344Z,1.61
2023-05-10T06:28:43.611Z,1.86
2023-05-10T06:29:44.135Z,2.15
2023-05-10T06:30:43.580Z,2.27
2023-05-10T06:31:43.639Z,2.34
2023-05-10T06:32:43.608Z,2.36
2023-05-10T06:33:43.637Z,2.42
2023-05-10T06:34:43.562Z,2.40
2023-05-10T06:35:43.674Z,2.63
2023-05-10T06:36:43.524Z,3.28
2023-05-10T06:37:43.550Z,2.69
2023-05-10T06:38:43.565Z,2.10
2023-05-10T06:39:43.551Z,1.77
2023-05-10T06:40:43.761Z,1.98
2023-05-10T06:41:43.686Z,2.62
2023-05-10T06:42:43.721Z,2.74
2023-05-10T06:43:43.787Z,2.50
2023-05-10T06:44:43.856Z,2.23
2023-05-10T06:45:43.892Z,2.25
2023-05-10T06:48:03.518Z,0.50
2023-05-10T06:49:04.452Z,0.50
2023-05-10T06:50:03.410Z,0.50
2023-05-10T06:51:03.414Z,0.50
2023-05-10T06:52:03.396Z,0.50
2023-05-10T06:53:03.402Z,0.56
2023-05-10T06:54:03.417Z,0.70
2023-05-10T06:55:03.429Z,0.78
2023-05-10T06:56:04.417Z,0.61
2023-05-10T06:57:04.165Z,0.62
2023-05-10T06:58:03.419Z,0.52
2023-05-10T06:59:03.454Z,0.54
2023-05-10T07:00:03.609Z,0.50
2023-05-10T07:01:03.610Z,0.46
2023-05-10T07:02:03.668Z,0.60
2023-05-10T07:03:03.720Z,0.64
2023-05-10T07:04:04.043Z,0.46
2023-05-10T07:05:03.833Z,0.34
2023-05-10T07:06:03.904Z,0.34
2023-05-10T07:07:03.936Z,0.34
2023-05-10T07:08:03.970Z,0.34
2023-05-10T07:09:04.027Z,0.34
2023-05-10T07:10:04.088Z,0.36
2023-05-10T07:11:04.114Z,0.49
2023-05-10T07:12:04.187Z,0.50
2023-05-10T07:13:04.196Z,0.53
2023-05-10T07:14:04.209Z,0.54
2023-05-10T07:15:04.253Z,0.46
2023-05-10T07:16:04.235Z,0.58
2023-05-10T07:17:04.243Z,0.62
2023-05-10T07:18:04.489Z,0.46
2023-05-10T07:19:04.302Z,0.48
2023-05-10T07:20:04.530Z,0.50
2023-05-10T07:21:04.382Z,0.47
2023-05-10T07:22:04.424Z,0.34
2023-05-10T07:23:04.472Z,0.42
2023-05-10T07:24:04.576Z,0.34
2023-05-10T07:25:04.802Z,0.34
2023-05-10T07:26:04.662Z,0.52
2023-05-10T07:27:04.704Z,0.55
2023-05-10T07:28:04.664Z,0.82
2023-05-10T07:29:04.686Z,1.45
2023-05-10T07:30:04.776Z,1.52
2023-05-10T07:31:04.797Z,1.25
2023-05-10T07:32:04.812Z,1.10
2023-05-10T07:33:04.772Z,1.10
2023-05-10T07:34:04.809Z,0.51
2023-05-10T07:35:04.825Z,0.41
2023-05-10T07:36:04.757Z,0.54
2023-05-10T07:37:04.781Z,0.59
2023-05-10T07:38:04.783Z,0.69
2023-05-10T07:39:04.793Z,1.01
2023-05-10T07:40:04.868Z,2.37
2023-05-10T07:41:04.838Z,3.94
2023-05-10T07:42:04.911Z,2.41
2023-05-10T07:43:04.965Z,1.62
2023-05-10T07:44:05.012Z,1.40
2023-05-10T07:45:05.085Z,1.10
2023-05-10T07:46:05.213Z,0.74
2023-05-10T07:47:05.169Z,0.78
2023-05-10T07:48:05.265Z,1.31
2023-05-10T07:49:05.269Z,2.05
2023-05-10T07:50:05.537Z,0.87
2023-05-10T07:51:05.348Z,0.49
2023-05-10T07:52:05.367Z,0.46
2023-05-10T07:53:05.449Z,0.73
2023-05-10T07:54:05.566Z,1.18
2023-05-10T07:55:05.571Z,1.49
2023-05-10T07:56:05.620Z,1.35
2023-05-10T07:57:05.629Z,0.86
2023-05-10T07:58:05.685Z,0.68
2023-05-10T07:59:05.635Z,0.46
2023-05-10T08:00:05.720Z,0.34
2023-05-10T08:01:05.757Z,0.34
2023-05-10T08:02:05.854Z,0.42
2023-05-10T08:03:05.909Z,0.76
2023-05-10T08:04:05.920Z,1.40
2023-05-10T08:05:05.855Z,4.66
2023-05-10T08:06:05.912Z,4.45
2023-05-10T08:07:05.975Z,1.53
2023-05-10T08:08:06.010Z,0.91
2023-05-10T08:09:06.043Z,0.88
2023-05-10T08:10:06.077Z,1.34
2023-05-10T08:11:06.074Z,1.92
2023-05-10T08:12:06.195Z,3.21
2023-05-10T08:13:06.253Z,3.52
2023-05-10T08:14:06.234Z,4.65
2023-05-10T08:15:06.260Z,5.33
2023-05-10T08:16:06.409Z,6.66
2023-05-10T08:17:06.941Z,7.13
2023-05-10T08:18:06.511Z,7.25
2023-05-10T08:19:06.513Z,8.87
2023-05-10T08:20:06.612Z,8.15
2023-05-10T08:21:06.526Z,6.76
2023-05-10T08:22:06.577Z,11.56
2023-05-10T08:23:06.583Z,15.54
2023-05-10T08:24:06.626Z,11.40
2023-05-10T08:25:07.420Z,10.75
2023-05-10T08:26:06.811Z,10.82
2023-05-10T08:27:06.822Z,11.46
2023-05-10T08:28:06.846Z,14.99
2023-05-10T08:29:06.845Z,16.96
2023-05-10T08:30:07.143Z,25.93
2023-05-10T08:31:07.017Z,24.40
2023-05-10T08:32:06.982Z,21.50
2023-05-10T08:33:07.105Z,19.24
2023-05-10T08:34:07.062Z,10.65
2023-05-10T08:35:07.154Z,10.90
2023-05-10T08:36:07.622Z,10.75
2023-05-10T08:37:07.185Z,9.28
2023-05-10T08:38:07.262Z,9.01
2023-05-10T08:39:13.532Z,6.65
2023-05-10T08:40:08.230Z,6.76
2023-05-10T08:41:07.306Z,7.14
2023-05-10T08:42:07.229Z,7.58
2023-05-10T08:43:07.384Z,11.49
2023-05-10T08:44:07.205Z,38.65
2023-05-10T08:45:07.530Z,20.72
2023-05-10T08:46:07.825Z,15.74
2023-05-10T08:47:07.327Z,9.18
2023-05-10T08:48:07.242Z,10.58
2023-05-10T08:49:07.190Z,9.17
2023-05-10T08:50:07.207Z,6.59
2023-05-10T08:51:07.607Z,4.57
2023-05-10T08:52:07.265Z,2.82
2023-05-10T08:53:07.292Z,1.93
2023-05-10T08:54:07.302Z,1.58
2023-05-10T08:55:07.344Z,2.00
2023-05-10T08:56:07.388Z,2.16
2023-05-10T08:57:07.404Z,2.60
2023-05-10T08:58:07.367Z,1.74
2023-05-10T08:59:07.372Z,1.31
2023-05-10T09:00:07.450Z,0.83
2023-05-10T09:01:07.844Z,0.73
2023-05-10T09:02:07.473Z,1.27
2023-05-10T09:03:07.571Z,1.61
2023-05-10T09:04:07.692Z,1.42
2023-05-10T09:05:07.686Z,0.94
2023-05-10T09:06:08.125Z,1.13
2023-05-10T09:07:07.656Z,1.39
2023-05-10T09:08:07.662Z,1.33
2023-05-10T09:09:07.669Z,0.84
2023-05-10T09:10:07.716Z,0.74
2023-05-10T09:11:08.544Z,1.06
2023-05-10T09:12:08.717Z,0.41
2023-05-10T09:13:07.723Z,0.43
2023-05-10T09:14:07.651Z,0.50
2023-05-10T09:15:07.719Z,0.55
2023-05-10T09:16:20.286Z,0.55
2023-05-10T09:17:08.754Z,0.55
2023-05-10T09:18:07.743Z,0.56
2023-05-10T09:19:07.752Z,0.64
2023-05-10T09:20:07.708Z,2.45
2023-05-10T09:21:07.692Z,3.78
2023-05-10T09:22:07.685Z,1.08
2023-05-10T09:23:07.736Z,0.70
2023-05-10T09:24:07.754Z,0.48
2023-05-10T09:25:07.814Z,0.58
2023-05-10T09:26:07.856Z,0.77
2023-05-10T09:27:07.935Z,0.49
2023-05-10T09:28:07.992Z,0.60
2023-05-10T09:29:08.090Z,0.67
2023-05-10T09:30:08.064Z,0.73
2023-05-10T09:31:08.168Z,0.67
2023-05-10T09:32:08.105Z,0.49
2023-05-10T09:33:08.137Z,0.58
2023-05-10T09:34:08.205Z,0.58
2023-05-10T09:35:08.126Z,0.54
2023-05-10T09:36:08.613Z,0.48
2023-05-10T09:37:08.133Z,0.51
2023-05-10T09:38:08.162Z,0.75
2023-05-10T09:39:08.168Z,1.00
2023-05-10T09:40:08.228Z,0.87
2023-05-10T09:41:08.190Z,0.85
2023-05-10T09:42:08.223Z,0.76
2023-05-10T09:43:08.410Z,0.84
2023-05-10T09:44:08.313Z,1.09
2023-05-10T09:45:08.363Z,1.31
2023-05-10T09:46:08.387Z,1.69
2023-05-10T09:47:08.421Z,4.12
2023-05-10T09:48:08.459Z,6.11
2023-05-10T09:49:08.492Z,10.62
2023-05-10T09:50:08.506Z,12.76
2023-05-10T09:51:08.647Z,12.47
2023-05-10T09:52:08.605Z,9.79
2023-05-10T09:53:08.578Z,26.54
2023-05-10T09:54:08.633Z,27.59
2023-05-10T09:55:08.654Z,21.07
2023-05-10T09:56:08.647Z,14.97
2023-05-10T09:57:08.671Z,16.04
2023-05-10T09:58:08.714Z,22.90
2023-05-10T09:59:09.461Z,22.56
2023-05-10T10:00:08.729Z,16.38
2023-05-10T10:01:08.839Z,22.64
2023-05-10T10:02:08.718Z,20.24
2023-05-10T10:03:08.822Z,15.40
2023-05-10T10:04:08.730Z,9.77
2023-05-10T10:05:08.762Z,13.46
2023-05-10T10:06:18.840Z,14.29
2023-05-10T10:07:09.706Z,14.30
2023-05-10T10:08:08.666Z,10.79
2023-05-10T10:09:08.706Z,9.98
2023-05-10T10:10:08.733Z,8.66
2023-05-10T10:11:09.099Z,8.73
2023-05-10T10:12:08.641Z,10.19
2023-05-10T10:13:08.620Z,8.89
2023-05-10T10:14:08.704Z,3.88
2023-05-10T10:15:08.656Z,2.57
2023-05-10T10:16:08.662Z,2.00
2023-05-10T10:17:09.090Z,1.18
2023-05-10T10:18:08.658Z,2.02
2023-05-10T10:19:08.614Z,2.28
2023-05-10T10:20:10.466Z,2.08
2023-05-10T10:21:08.572Z,1.67
2023-05-10T10:22:08.621Z,2.16
2023-05-10T10:23:08.556Z,2.86
2023-05-10T10:24:08.578Z,6.35
2023-05-10T10:25:08.563Z,6.90
2023-05-10T10:26:08.644Z,8.75
2023-05-10T10:27:08.568Z,3.03
2023-05-10T10:28:08.513Z,1.61
2023-05-10T10:29:08.585Z,1.79
2023-05-10T10:30:08.587Z,0.85
2023-05-10T10:31:08.584Z,0.43
2023-05-10T10:32:08.605Z,0.42
2023-05-10T10:33:20.183Z,0.58
2023-05-10T10:34:09.534Z,0.59
2023-05-10T10:35:08.530Z,0.60
2023-05-10T10:36:08.508Z,0.60
2023-05-10T10:37:08.628Z,0.64
2023-05-10T10:38:08.532Z,0.84
2023-05-10T10:39:08.546Z,0.87
2023-05-10T10:40:08.449Z,2.69
2023-05-10T10:41:08.446Z,3.96
2023-05-10T10:42:08.637Z,6.30
2023-05-10T10:43:08.467Z,9.71
2023-05-10T10:44:08.452Z,6.25
2023-05-10T10:45:08.481Z,4.22
2023-05-10T10:46:08.440Z,5.31
2023-05-10T10:47:08.691Z,17.98
2023-05-10T10:48:08.542Z,2.74
2023-05-10T10:49:08.476Z,7.00
2023-05-10T10:50:08.552Z,7.56
2023-05-10T10:51:10.087Z,5.86
2023-05-10T10:52:08.532Z,6.96
2023-05-10T10:53:08.550Z,5.53
2023-05-10T10:54:08.619Z,6.57
2023-05-10T10:55:08.629Z,44.44
2023-05-10T10:56:08.678Z,54.33
2023-05-10T10:57:08.716Z,13.02
2023-05-10T10:58:08.642Z,19.24
2023-05-10T10:59:08.688Z,14.18
2023-05-10T11:00:08.724Z,3.23
2023-05-10T11:01:08.756Z,0.66
2023-05-10T11:02:08.812Z,0.34
2023-05-10T11:03:08.916Z,0.34
2023-05-10T11:04:08.818Z,0.45
2023-05-10T11:05:08.822Z,0.44
2023-05-10T11:06:08.892Z,0.65
2023-05-10T11:07:09.155Z,0.79
2023-05-10T11:08:08.943Z,0.78
2023-05-10T11:09:08.985Z,0.91
2023-05-10T11:10:08.949Z,1.24
2023-05-10T11:11:09.000Z,1.82
2023-05-10T11:12:09.237Z,2.82
2023-05-10T11:13:09.101Z,1.21
2023-05-10T11:14:09.145Z,1.17
2023-05-10T11:15:10.448Z,1.37
2023-05-10T11:16:09.242Z,1.62
2023-05-10T11:17:09.298Z,1.09
2023-05-10T11:18:09.343Z,1.16
2023-05-10T11:19:09.462Z,0.89
2023-05-10T11:20:09.458Z,1.26
2023-05-10T11:21:09.490Z,1.09
2023-05-10T11:22:09.613Z,0.93
2023-05-10T11:23:09.612Z,1.37
2023-05-10T11:24:09.662Z,3.71
2023-05-10T11:25:09.679Z,4.94
2023-05-10T11:26:09.860Z,4.62
2023-05-10T11:27:10.378Z,4.92
2023-05-10T11:28:09.990Z,2.66
2023-05-10T11:29:10.197Z,2.67
2023-05-10T11:30:09.953Z,2.69
2023-05-10T11:31:09.924Z,3.67
2023-05-10T11:32:10.229Z,8.56
2023-05-10T11:33:10.002Z,29.62
2023-05-10T11:34:09.890Z,606.85
2023-05-10T11:35:09.901Z,386.98
2023-05-10T11:36:09.896Z,102.71
2023-05-10T11:37:09.868Z,71.60
2023-05-10T11:38:10.151Z,58.56
2023-05-10T11:39:09.889Z,47.72
2023-05-10T11:40:09.883Z,14.10
2023-05-10T11:41:10.030Z,10.31
2023-05-10T11:42:09.901Z,9.12
2023-05-10T11:43:10.123Z,16.35
2023-05-10T11:44:09.964Z,46.04
2023-05-10T11:45:10.034Z,68.78
2023-05-10T11:46:10.056Z,33.10
2023-05-10T11:47:10.117Z,7.44
2023-05-10T11:48:10.201Z,7.81
2023-05-10T11:49:10.149Z,11.99
2023-05-10T11:50:10.159Z,16.53
2023-05-10T11:51:10.186Z,10.43
2023-05-10T11:52:10.209Z,6.04
2023-05-10T11:53:10.228Z,4.02
2023-05-10T11:54:10.292Z,3.45
2023-05-10T11:55:10.349Z,2.58
2023-05-10T11:56:10.362Z,3.71
2023-05-10T11:57:10.408Z,5.07
2023-05-10T11:58:10.493Z,3.54
2023-05-10T11:59:10.499Z,3.18
2023-05-10T12:00:10.567Z,3.99
2023-05-10T12:01:10.606Z,5.29
2023-05-10T12:02:10.695Z,5.20
2023-05-10T12:03:11.221Z,8.23
2023-05-10T12:04:11.001Z,13.47
2023-05-10T12:05:10.900Z,15.56
2023-05-10T12:06:10.932Z,17.51
2023-05-10T12:07:10.927Z,22.83
2023-05-10T12:08:11.002Z,17.24
2023-05-10T12:09:11.057Z,13.58
2023-05-10T12:10:11.138Z,8.30
2023-05-10T12:11:11.116Z,10.59
2023-05-10T12:12:11.132Z,7.82
2023-05-10T12:13:11.158Z,7.75
2023-05-10T12:14:11.162Z,11.31
2023-05-10T12:15:11.173Z,14.16
2023-05-10T12:16:11.234Z,10.12
2023-05-10T12:17:11.157Z,9.67
2023-05-10T12:18:11.273Z,8.85
2023-05-10T12:19:11.389Z,9.26
2023-05-10T12:20:11.213Z,17.31
2023-05-10T12:21:11.275Z,8.92
2023-05-10T12:22:11.246Z,10.56
2023-05-10T12:23:11.240Z,13.80
2023-05-10T12:24:11.303Z,14.24
2023-05-10T12:25:11.268Z,13.26
2023-05-10T12:26:11.355Z,22.30
2023-05-10T12:27:11.433Z,44.06
2023-05-10T12:28:11.387Z,26.31
2023-05-10T12:29:11.395Z,25.88
2023-05-10T12:30:11.472Z,77.25
2023-05-10T12:31:11.515Z,36.15
2023-05-10T12:32:11.553Z,27.49
2023-05-10T12:33:11.679Z,29.24
2023-05-10T12:34:11.613Z,27.61
2023-05-10T12:35:11.637Z,25.66
2023-05-10T12:36:11.724Z,8.90
2023-05-10T12:37:11.692Z,7.85
2023-05-10T12:38:11.753Z,7.93
2023-05-10T12:39:11.762Z,12.41
2023-05-10T12:40:11.796Z,8.44
2023-05-10T12:41:11.916Z,5.33
2023-05-10T12:42:11.892Z,5.34
2023-05-10T12:43:11.957Z,6.36
2023-05-10T12:44:11.958Z,7.24
2023-05-10T12:45:12.020Z,11.25
2023-05-10T12:46:12.128Z,14.43
2023-05-10T12:47:12.126Z,7.98
2023-05-10T12:48:12.672Z,5.53
2023-05-10T12:49:12.201Z,5.82
2023-05-10T12:50:12.365Z,6.40